sensor_id;sensor_type;location;lat;lon;timestamp;P1;durP1;ratioP1;P2;durP2;ratioP2
59786;SDS011;45672;51.612;5.536;2023-05-07T00:00:12;6.20;;;5.60;;
59786;SDS011;45672;51.612;5.536;2023-05-07T00:02:40;6.78;;;5.68;;
59786;SDS011;45672;51.612;5.536;2023-05-07T00:05:06;5.95;;;5.30;;
59786;SDS011;45672;51.612;5.536;2023-05-07T00:07:32;6.32;;;5.65;;
59786;SDS011;45672;51.612;5.536;2023-05-07T00:09:57;6.25;;;5.75;;
59786;SDS011;45672;51.612;5.536;2023-05-07T00:12:22;5.90;;;5.40;;
59786;SDS011;45672;51.612;5.536;2023-05-07T00:14:48;8.07;;;6.07;;
59786;SDS011;45672;51.612;5.536;2023-05-07T00:17:13;6.07;;;5.68;;
59786;SDS011;45672;51.612;5.536;2023-05-07T00:19:38;6.35;;;5.80;;
59786;SDS011;45672;51.612;5.536;2023-05-07T00:22:04;7.72;;;5.63;;
59786;SDS011;45672;51.612;5.536;2023-05-07T00:24:29;6.40;;;5.85;;
59786;SDS011;45672;51.612;5.536;2023-05-07T00:26:54;7.70;;;6.05;;
59786;SDS011;45672;51.612;5.536;2023-05-07T00:29:20;6.68;;;6.07;;
59786;SDS011;45672;51.612;5.536;2023-05-07T00:31:45;7.00;;;6.40;;
59786;SDS011;45672;51.612;5.536;2023-05-07T00:34:10;7.93;;;6.25;;
59786;SDS011;45672;51.612;5.536;2023-05-07T00:36:35;6.93;;;6.38;;
59786;SDS011;45672;51.612;5.536;2023-05-07T00:39:01;6.55;;;5.95;;
59786;SDS011;45672;51.612;5.536;2023-05-07T00:41:28;7.07;;;6.10;;
59786;SDS011;45672;51.612;5.536;2023-05-07T00:43:54;7.22;;;6.60;;
59786;SDS011;45672;51.612;5.536;2023-05-07T00:46:20;7.00;;;6.40;;
59786;SDS011;45672;51.612;5.536;2023-05-07T00:48:45;7.53;;;6.80;;
59786;SDS011;45672;51.612;5.536;2023-05-07T00:51:11;7.40;;;6.70;;
59786;SDS011;45672;51.612;5.536;2023-05-07T00:53:37;8.10;;;7.30;;
59786;SDS011;45672;51.612;5.536;2023-05-07T00:56:03;7.53;;;6.93;;
59786;SDS011;45672;51.612;5.536;2023-05-07T00:58:28;6.85;;;6.25;;
59786;SDS011;45672;51.612;5.536;2023-05-07T01:00:55;7.18;;;6.57;;
59786;SDS011;45672;51.612;5.536;2023-05-07T01:03:20;7.63;;;7.03;;
59786;SDS011;45672;51.612;5.536;2023-05-07T01:05:45;7.32;;;6.72;;
59786;SDS011;45672;51.612;5.536;2023-05-07T01:08:12;8.55;;;7.00;;
59786;SDS011;45672;51.612;5.536;2023-05-07T01:10:40;8.75;;;7.28;;
59786;SDS011;45672;51.612;5.536;2023-05-07T01:13:08;8.07;;;7.28;;
59786;SDS011;45672;51.612;5.536;2023-05-07T01:15:35;7.72;;;6.97;;
59786;SDS011;45672;51.612;5.536;2023-05-07T01:18:00;9.10;;;7.43;;
59786;SDS011;45672;51.612;5.536;2023-05-07T01:20:26;8.13;;;7.43;;
59786;SDS011;45672;51.612;5.536;2023-05-07T01:22:53;8.10;;;7.40;;
59786;SDS011;45672;51.612;5.536;2023-05-07T01:25:18;8.90;;;8.00;;
59786;SDS011;45672;51.612;5.536;2023-05-07T01:27:44;8.88;;;7.90;;
59786;SDS011;45672;51.612;5.536;2023-05-07T01:30:09;9.40;;;8.00;;
59786;SDS011;45672;51.612;5.536;2023-05-07T01:32:38;8.75;;;7.95;;
59786;SDS011;45672;51.612;5.536;2023-05-07T01:35:09;9.02;;;8.20;;
59786;SDS011;45672;51.612;5.536;2023-05-07T01:37:36;10.35;;;8.70;;
59786;SDS011;45672;51.612;5.536;2023-05-07T01:40:03;10.80;;;8.93;;
59786;SDS011;45672;51.612;5.536;2023-05-07T01:42:29;10.38;;;9.40;;
59786;SDS011;45672;51.612;5.536;2023-05-07T01:44:55;10.45;;;9.45;;
59786;SDS011;45672;51.612;5.536;2023-05-07T01:47:20;11.52;;;10.43;;
59786;SDS011;45672;51.612;5.536;2023-05-07T01:49:47;12.95;;;11.55;;
59786;SDS011;45672;51.612;5.536;2023-05-07T01:52:12;13.48;;;12.02;;
59786;SDS011;45672;51.612;5.536;2023-05-07T01:54:38;13.07;;;11.88;;
59786;SDS011;45672;51.612;5.536;2023-05-07T01:57:03;15.02;;;12.55;;
59786;SDS011;45672;51.612;5.536;2023-05-07T01:59:28;13.98;;;12.25;;
59786;SDS011;45672;51.612;5.536;2023-05-07T02:01:54;14.32;;;12.80;;
59786;SDS011;45672;51.612;5.536;2023-05-07T02:04:19;14.02;;;12.60;;
59786;SDS011;45672;51.612;5.536;2023-05-07T02:06:44;13.88;;;12.48;;
59786;SDS011;45672;51.612;5.536;2023-05-07T02:09:10;14.18;;;12.68;;
59786;SDS011;45672;51.612;5.536;2023-05-07T02:11:36;14.75;;;12.25;;
59786;SDS011;45672;51.612;5.536;2023-05-07T02:14:01;15.10;;;13.27;;
59786;SDS011;45672;51.612;5.536;2023-05-07T02:16:27;17.15;;;13.05;;
59786;SDS011;45672;51.612;5.536;2023-05-07T02:18:52;14.00;;;12.52;;
59786;SDS011;45672;51.612;5.536;2023-05-07T02:21:17;20.35;;;13.70;;
59786;SDS011;45672;51.612;5.536;2023-05-07T02:23:42;15.55;;;12.95;;
59786;SDS011;45672;51.612;5.536;2023-05-07T02:26:08;17.08;;;13.68;;
59786;SDS011;45672;51.612;5.536;2023-05-07T02:28:33;18.27;;;13.55;;
59786;SDS011;45672;51.612;5.536;2023-05-07T02:31:02;18.38;;;13.48;;
59786;SDS011;45672;51.612;5.536;2023-05-07T02:33:27;15.38;;;13.88;;
59786;SDS011;45672;51.612;5.536;2023-05-07T02:35:53;15.85;;;14.07;;
59786;SDS011;45672;51.612;5.536;2023-05-07T02:38:18;19.75;;;14.25;;
59786;SDS011;45672;51.612;5.536;2023-05-07T02:40:43;16.92;;;14.13;;
59786;SDS011;45672;51.612;5.536;2023-05-07T02:43:09;15.38;;;13.75;;
59786;SDS011;45672;51.612;5.536;2023-05-07T02:45:34;16.65;;;14.15;;
59786;SDS011;45672;51.612;5.536;2023-05-07T02:48:01;19.00;;;14.57;;
59786;SDS011;45672;51.612;5.536;2023-05-07T02:50:26;15.68;;;13.90;;
59786;SDS011;45672;51.612;5.536;2023-05-07T02:52:52;16.83;;;14.27;;
59786;SDS011;45672;51.612;5.536;2023-05-07T02:55:17;16.40;;;14.20;;
59786;SDS011;45672;51.612;5.536;2023-05-07T02:57:42;17.35;;;14.48;;
59786;SDS011;45672;51.612;5.536;2023-05-07T03:00:14;16.83;;;14.20;;
59786;SDS011;45672;51.612;5.536;2023-05-07T03:02:42;16.17;;;14.57;;
59786;SDS011;45672;51.612;5.536;2023-05-07T03:05:08;18.65;;;14.48;;
59786;SDS011;45672;51.612;5.536;2023-05-07T03:07:34;21.80;;;14.55;;
59786;SDS011;45672;51.612;5.536;2023-05-07T03:10:00;16.75;;;13.82;;
59786;SDS011;45672;51.612;5.536;2023-05-07T03:12:25;19.05;;;15.05;;
59786;SDS011;45672;51.612;5.536;2023-05-07T03:14:51;15.93;;;14.23;;
59786;SDS011;45672;51.612;5.536;2023-05-07T03:17:16;16.95;;;15.05;;
59786;SDS011;45672;51.612;5.536;2023-05-07T03:19:41;15.70;;;14.07;;
59786;SDS011;45672;51.612;5.536;2023-05-07T03:22:07;17.25;;;15.27;;
59786;SDS011;45672;51.612;5.536;2023-05-07T03:24:32;17.90;;;15.32;;
59786;SDS011;45672;51.612;5.536;2023-05-07T03:26:57;17.17;;;14.48;;
59786;SDS011;45672;51.612;5.536;2023-05-07T03:29:23;16.10;;;14.50;;
59786;SDS011;45672;51.612;5.536;2023-05-07T03:31:48;15.20;;;13.68;;
59786;SDS011;45672;51.612;5.536;2023-05-07T03:34:13;18.20;;;15.07;;
59786;SDS011;45672;51.612;5.536;2023-05-07T03:36:39;17.90;;;15.32;;
59786;SDS011;45672;51.612;5.536;2023-05-07T03:39:04;17.98;;;15.10;;
59786;SDS011;45672;51.612;5.536;2023-05-07T03:41:30;17.42;;;15.05;;
59786;SDS011;45672;51.612;5.536;2023-05-07T03:43:55;18.83;;;15.20;;
59786;SDS011;45672;51.612;5.536;2023-05-07T03:46:20;18.67;;;15.48;;
59786;SDS011;45672;51.612;5.536;2023-05-07T03:48:45;18.63;;;15.55;;
59786;SDS011;45672;51.612;5.536;2023-05-07T03:51:11;21.33;;;14.95;;
59786;SDS011;45672;51.612;5.536;2023-05-07T03:53:36;20.75;;;15.43;;
59786;SDS011;45672;51.612;5.536;2023-05-07T03:56:01;18.42;;;15.90;;
59786;SDS011;45672;51.612;5.536;2023-05-07T03:58:27;20.45;;;15.73;;
59786;SDS011;45672;51.612;5.536;2023-05-07T04:00:52;17.80;;;15.82;;
59786;SDS011;45672;51.612;5.536;2023-05-07T04:03:18;19.60;;;16.75;;
59786;SDS011;45672;51.612;5.536;2023-05-07T04:05:43;20.38;;;16.38;;
59786;SDS011;45672;51.612;5.536;2023-05-07T04:08:08;20.02;;;16.33;;
59786;SDS011;45672;51.612;5.536;2023-05-07T04:10:34;17.92;;;16.15;;
59786;SDS011;45672;51.612;5.536;2023-05-07T04:12:59;19.33;;;16.60;;
59786;SDS011;45672;51.612;5.536;2023-05-07T04:15:24;20.08;;;16.77;;
59786;SDS011;45672;51.612;5.536;2023-05-07T04:17:49;19.40;;;17.23;;
59786;SDS011;45672;51.612;5.536;2023-05-07T04:20:16;18.60;;;16.58;;
59786;SDS011;45672;51.612;5.536;2023-05-07T04:22:42;18.80;;;16.73;;
59786;SDS011;45672;51.612;5.536;2023-05-07T04:25:08;20.50;;;18.27;;
59786;SDS011;45672;51.612;5.536;2023-05-07T04:27:36;20.98;;;16.88;;
59786;SDS011;45672;51.612;5.536;2023-05-07T04:30:02;23.60;;;18.63;;
59786;SDS011;45672;51.612;5.536;2023-05-07T04:32:28;20.90;;;18.65;;
59786;SDS011;45672;51.612;5.536;2023-05-07T04:34:55;22.27;;;18.73;;
59786;SDS011;45672;51.612;5.536;2023-05-07T04:37:21;20.38;;;18.27;;
59786;SDS011;45672;51.612;5.536;2023-05-07T04:39:46;22.67;;;18.17;;
59786;SDS011;45672;51.612;5.536;2023-05-07T04:42:15;25.58;;;19.38;;
59786;SDS011;45672;51.612;5.536;2023-05-07T04:44:41;22.10;;;19.08;;
59786;SDS011;45672;51.612;5.536;2023-05-07T04:47:06;21.05;;;18.77;;
59786;SDS011;45672;51.612;5.536;2023-05-07T04:49:31;22.45;;;19.00;;
59786;SDS011;45672;51.612;5.536;2023-05-07T04:51:56;21.35;;;18.85;;
59786;SDS011;45672;51.612;5.536;2023-05-07T04:54:22;23.63;;;19.25;;
59786;SDS011;45672;51.612;5.536;2023-05-07T04:56:47;22.77;;;18.98;;
59786;SDS011;45672;51.612;5.536;2023-05-07T04:59:12;26.17;;;20.10;;
59786;SDS011;45672;51.612;5.536;2023-05-07T05:01:38;29.83;;;19.65;;
59786;SDS011;45672;51.612;5.536;2023-05-07T05:04:03;23.00;;;20.55;;
59786;SDS011;45672;51.612;5.536;2023-05-07T05:06:28;22.20;;;19.80;;
59786;SDS011;45672;51.612;5.536;2023-05-07T05:08:54;25.35;;;21.23;;
59786;SDS011;45672;51.612;5.536;2023-05-07T05:11:19;23.55;;;21.00;;
59786;SDS011;45672;51.612;5.536;2023-05-07T05:13:45;27.30;;;21.80;;
59786;SDS011;45672;51.612;5.536;2023-05-07T05:16:13;24.73;;;21.95;;
59786;SDS011;45672;51.612;5.536;2023-05-07T05:18:38;25.02;;;21.48;;
59786;SDS011;45672;51.612;5.536;2023-05-07T05:21:03;25.30;;;22.52;;
59786;SDS011;45672;51.612;5.536;2023-05-07T05:23:29;25.38;;;21.48;;
59786;SDS011;45672;51.612;5.536;2023-05-07T05:25:57;29.38;;;23.48;;
59786;SDS011;45672;51.612;5.536;2023-05-07T05:28:23;27.25;;;23.50;;
59786;SDS011;45672;51.612;5.536;2023-05-07T05:30:48;27.20;;;23.98;;
59786;SDS011;45672;51.612;5.536;2023-05-07T05:33:14;30.98;;;23.92;;
59786;SDS011;45672;51.612;5.536;2023-05-07T05:35:40;26.85;;;23.58;;
59786;SDS011;45672;51.612;5.536;2023-05-07T05:38:05;29.45;;;24.92;;
59786;SDS011;45672;51.612;5.536;2023-05-07T05:40:30;33.58;;;23.88;;
59786;SDS011;45672;51.612;5.536;2023-05-07T05:42:56;28.92;;;24.17;;
59786;SDS011;45672;51.612;5.536;2023-05-07T05:45:21;28.45;;;24.25;;
59786;SDS011;45672;51.612;5.536;2023-05-07T05:47:47;29.50;;;24.95;;
59786;SDS011;45672;51.612;5.536;2023-05-07T05:50:12;29.33;;;24.52;;
59786;SDS011;45672;51.612;5.536;2023-05-07T05:52:37;31.55;;;25.27;;
59786;SDS011;45672;51.612;5.536;2023-05-07T05:55:03;29.42;;;25.00;;
59786;SDS011;45672;51.612;5.536;2023-05-07T05:57:29;30.52;;;26.00;;
59786;SDS011;45672;51.612;5.536;2023-05-07T05:59:54;32.55;;;27.10;;
59786;SDS011;45672;51.612;5.536;2023-05-07T06:02:20;26.70;;;23.60;;
59786;SDS011;45672;51.612;5.536;2023-05-07T06:04:45;32.03;;;25.55;;
59786;SDS011;45672;51.612;5.536;2023-05-07T06:07:11;27.77;;;24.85;;
59786;SDS011;45672;51.612;5.536;2023-05-07T06:09:37;29.13;;;26.05;;
59786;SDS011;45672;51.612;5.536;2023-05-07T06:12:02;29.38;;;25.23;;
59786;SDS011;45672;51.612;5.536;2023-05-07T06:14:28;32.95;;;27.02;;
59786;SDS011;45672;51.612;5.536;2023-05-07T06:16:53;29.38;;;26.17;;
59786;SDS011;45672;51.612;5.536;2023-05-07T06:19:18;28.35;;;25.35;;
59786;SDS011;45672;51.612;5.536;2023-05-07T06:21:48;29.35;;;25.15;;
59786;SDS011;45672;51.612;5.536;2023-05-07T06:24:13;31.23;;;25.27;;
59786;SDS011;45672;51.612;5.536;2023-05-07T06:26:38;30.23;;;24.95;;
59786;SDS011;45672;51.612;5.536;2023-05-07T06:29:04;29.48;;;24.85;;
59786;SDS011;45672;51.612;5.536;2023-05-07T06:31:30;28.15;;;24.60;;
59786;SDS011;45672;51.612;5.536;2023-05-07T06:33:56;26.92;;;23.70;;
59786;SDS011;45672;51.612;5.536;2023-05-07T06:36:22;29.75;;;24.80;;
59786;SDS011;45672;51.612;5.536;2023-05-07T06:38:47;26.90;;;23.90;;
59786;SDS011;45672;51.612;5.536;2023-05-07T06:41:13;27.38;;;23.38;;
59786;SDS011;45672;51.612;5.536;2023-05-07T06:43:38;26.58;;;22.05;;
59786;SDS011;45672;51.612;5.536;2023-05-07T06:46:03;26.23;;;23.38;;
59786;SDS011;45672;51.612;5.536;2023-05-07T06:48:28;26.85;;;23.50;;
59786;SDS011;45672;51.612;5.536;2023-05-07T06:50:54;25.88;;;23.27;;
59786;SDS011;45672;51.612;5.536;2023-05-07T06:53:20;28.10;;;24.42;;
59786;SDS011;45672;51.612;5.536;2023-05-07T06:55:46;27.33;;;23.95;;
59786;SDS011;45672;51.612;5.536;2023-05-07T06:58:11;27.35;;;24.42;;
59786;SDS011;45672;51.612;5.536;2023-05-07T07:00:36;26.85;;;24.05;;
59786;SDS011;45672;51.612;5.536;2023-05-07T07:03:01;26.67;;;23.88;;
59786;SDS011;45672;51.612;5.536;2023-05-07T07:05:27;27.08;;;23.67;;
59786;SDS011;45672;51.612;5.536;2023-05-07T07:07:52;26.60;;;23.02;;
59786;SDS011;45672;51.612;5.536;2023-05-07T07:10:20;25.70;;;22.90;;
59786;SDS011;45672;51.612;5.536;2023-05-07T07:12:46;25.00;;;22.30;;
59786;SDS011;45672;51.612;5.536;2023-05-07T07:15:11;26.70;;;21.67;;
59786;SDS011;45672;51.612;5.536;2023-05-07T07:17:37;25.92;;;21.90;;
59786;SDS011;45672;51.612;5.536;2023-05-07T07:20:03;25.50;;;22.35;;
59786;SDS011;45672;51.612;5.536;2023-05-07T07:22:29;24.85;;;22.15;;
59786;SDS011;45672;51.612;5.536;2023-05-07T07:24:54;24.73;;;22.08;;
59786;SDS011;45672;51.612;5.536;2023-05-07T07:27:19;26.27;;;22.17;;
59786;SDS011;45672;51.612;5.536;2023-05-07T07:29:45;22.70;;;20.30;;
59786;SDS011;45672;51.612;5.536;2023-05-07T07:32:10;24.77;;;21.25;;
59786;SDS011;45672;51.612;5.536;2023-05-07T07:34:35;29.13;;;22.13;;
59786;SDS011;45672;51.612;5.536;2023-05-07T07:37:01;24.42;;;20.70;;
59786;SDS011;45672;51.612;5.536;2023-05-07T07:39:30;28.10;;;21.23;;
59786;SDS011;45672;51.612;5.536;2023-05-07T07:41:56;23.00;;;20.50;;
59786;SDS011;45672;51.612;5.536;2023-05-07T07:44:21;23.02;;;20.08;;
59786;SDS011;45672;51.612;5.536;2023-05-07T07:46:46;22.65;;;20.25;;
59786;SDS011;45672;51.612;5.536;2023-05-07T07:49:12;24.23;;;20.80;;
59786;SDS011;45672;51.612;5.536;2023-05-07T07:51:37;23.27;;;19.95;;
59786;SDS011;45672;51.612;5.536;2023-05-07T07:54:03;27.80;;;19.88;;
59786;SDS011;45672;51.612;5.536;2023-05-07T07:56:28;22.08;;;19.40;;
59786;SDS011;45672;51.612;5.536;2023-05-07T07:58:54;22.48;;;20.10;;
59786;SDS011;45672;51.612;5.536;2023-05-07T08:01:19;22.15;;;19.85;;
59786;SDS011;45672;51.612;5.536;2023-05-07T08:03:44;24.30;;;19.13;;
59786;SDS011;45672;51.612;5.536;2023-05-07T08:06:10;21.25;;;19.02;;
59786;SDS011;45672;51.612;5.536;2023-05-07T08:08:35;21.38;;;19.17;;
59786;SDS011;45672;51.612;5.536;2023-05-07T08:11:01;22.13;;;18.65;;
59786;SDS011;45672;51.612;5.536;2023-05-07T08:13:26;21.88;;;18.85;;
59786;SDS011;45672;51.612;5.536;2023-05-07T08:15:51;21.35;;;17.17;;
59786;SDS011;45672;51.612;5.536;2023-05-07T08:18:17;19.42;;;17.42;;
59786;SDS011;45672;51.612;5.536;2023-05-07T08:20:42;19.45;;;17.48;;
59786;SDS011;45672;51.612;5.536;2023-05-07T08:23:08;17.85;;;15.95;;
59786;SDS011;45672;51.612;5.536;2023-05-07T08:25:33;18.55;;;16.63;;
59786;SDS011;45672;51.612;5.536;2023-05-07T08:27:59;18.25;;;16.35;;
59786;SDS011;45672;51.612;5.536;2023-05-07T08:30:25;18.48;;;16.60;;
59786;SDS011;45672;51.612;5.536;2023-05-07T08:32:51;16.52;;;14.82;;
59786;SDS011;45672;51.612;5.536;2023-05-07T08:35:16;16.80;;;14.63;;
59786;SDS011;45672;51.612;5.536;2023-05-07T08:37:41;20.08;;;14.00;;
59786;SDS011;45672;51.612;5.536;2023-05-07T08:40:07;15.65;;;14.13;;
59786;SDS011;45672;51.612;5.536;2023-05-07T08:42:34;15.30;;;13.68;;
59786;SDS011;45672;51.612;5.536;2023-05-07T08:45:01;19.15;;;13.10;;
59786;SDS011;45672;51.612;5.536;2023-05-07T08:47:38;15.77;;;12.93;;
59786;SDS011;45672;51.612;5.536;2023-05-07T08:50:08;14.23;;;12.75;;
59786;SDS011;45672;51.612;5.536;2023-05-07T08:52:33;14.13;;;12.55;;
59786;SDS011;45672;51.612;5.536;2023-05-07T08:55:00;14.48;;;12.30;;
59786;SDS011;45672;51.612;5.536;2023-05-07T08:57:27;13.40;;;11.98;;
59786;SDS011;45672;51.612;5.536;2023-05-07T08:59:53;12.90;;;11.57;;
59786;SDS011;45672;51.612;5.536;2023-05-07T09:02:18;13.88;;;12.48;;
59786;SDS011;45672;51.612;5.536;2023-05-07T09:04:43;14.00;;;12.50;;
59786;SDS011;45672;51.612;5.536;2023-05-07T09:07:09;13.85;;;11.38;;
59786;SDS011;45672;51.612;5.536;2023-05-07T09:09:34;14.32;;;11.75;;
59786;SDS011;45672;51.612;5.536;2023-05-07T09:12:00;14.30;;;12.93;;
59786;SDS011;45672;51.612;5.536;2023-05-07T09:14:26;15.13;;;12.60;;
59786;SDS011;45672;51.612;5.536;2023-05-07T09:16:52;16.92;;;12.93;;
59786;SDS011;45672;51.612;5.536;2023-05-07T09:19:27;15.48;;;13.35;;
59786;SDS011;45672;51.612;5.536;2023-05-07T09:21:59;15.05;;;13.45;;
59786;SDS011;45672;51.612;5.536;2023-05-07T09:24:25;16.38;;;12.70;;
59786;SDS011;45672;51.612;5.536;2023-05-07T09:26:53;14.20;;;12.70;;
59786;SDS011;45672;51.612;5.536;2023-05-07T09:29:20;16.50;;;12.70;;
59786;SDS011;45672;51.612;5.536;2023-05-07T09:31:45;14.18;;;12.77;;
59786;SDS011;45672;51.612;5.536;2023-05-07T09:34:11;18.50;;;13.13;;
59786;SDS011;45672;51.612;5.536;2023-05-07T09:36:36;14.23;;;12.70;;
59786;SDS011;45672;51.612;5.536;2023-05-07T09:39:02;16.75;;;13.00;;
59786;SDS011;45672;51.612;5.536;2023-05-07T09:41:27;14.20;;;12.82;;
59786;SDS011;45672;51.612;5.536;2023-05-07T09:43:56;15.52;;;13.27;;
59786;SDS011;45672;51.612;5.536;2023-05-07T09:46:25;14.75;;;13.25;;
59786;SDS011;45672;51.612;5.536;2023-05-07T09:48:55;15.27;;;13.65;;
59786;SDS011;45672;51.612;5.536;2023-05-07T09:51:29;14.90;;;13.40;;
59786;SDS011;45672;51.612;5.536;2023-05-07T09:53:57;14.65;;;13.10;;
59786;SDS011;45672;51.612;5.536;2023-05-07T09:56:25;15.35;;;13.77;;
59786;SDS011;45672;51.612;5.536;2023-05-07T09:58:52;15.43;;;13.65;;
59786;SDS011;45672;51.612;5.536;2023-05-07T10:01:19;16.83;;;13.60;;
59786;SDS011;45672;51.612;5.536;2023-05-07T10:03:47;14.27;;;13.05;;
59786;SDS011;45672;51.612;5.536;2023-05-07T10:06:15;14.50;;;13.15;;
59786;SDS011;45672;51.612;5.536;2023-05-07T10:08:40;15.48;;;13.40;;
59786;SDS011;45672;51.612;5.536;2023-05-07T10:11:07;15.05;;;13.65;;
59786;SDS011;45672;51.612;5.536;2023-05-07T10:13:34;14.65;;;12.77;;
59786;SDS011;45672;51.612;5.536;2023-05-07T10:16:06;13.60;;;12.30;;
59786;SDS011;45672;51.612;5.536;2023-05-07T10:18:31;14.00;;;12.07;;
59786;SDS011;45672;51.612;5.536;2023-05-07T10:21:07;14.88;;;11.57;;
59786;SDS011;45672;51.612;5.536;2023-05-07T10:23:40;14.27;;;11.85;;
59786;SDS011;45672;51.612;5.536;2023-05-07T10:26:10;14.52;;;11.88;;
59786;SDS011;45672;51.612;5.536;2023-05-07T10:28:38;13.32;;;10.82;;
59786;SDS011;45672;51.612;5.536;2023-05-07T10:34:10;12.90;;;11.63;;
59786;SDS011;45672;51.612;5.536;2023-05-07T10:36:37;12.77;;;11.48;;
59786;SDS011;45672;51.612;5.536;2023-05-07T10:39:04;14.00;;;12.05;;
59786;SDS011;45672;51.612;5.536;2023-05-07T10:41:31;14.38;;;11.00;;
59786;SDS011;45672;51.612;5.536;2023-05-07T10:43:56;12.73;;;11.43;;
59786;SDS011;45672;51.612;5.536;2023-05-07T10:46:22;12.25;;;10.93;;
59786;SDS011;45672;51.612;5.536;2023-05-07T10:51:25;11.23;;;10.13;;
59786;SDS011;45672;51.612;5.536;2023-05-07T10:56:35;11.15;;;10.05;;
59786;SDS011;45672;51.612;5.536;2023-05-07T11:01:55;15.23;;;9.38;;
59786;SDS011;45672;51.612;5.536;2023-05-07T11:04:22;12.48;;;11.18;;
59786;SDS011;45672;51.612;5.536;2023-05-07T11:07:35;12.00;;;10.90;;
59786;SDS011;45672;51.612;5.536;2023-05-07T11:09:54;12.57;;;11.02;;
59786;SDS011;45672;51.612;5.536;2023-05-07T11:15:01;10.80;;;8.40;;
59786;SDS011;45672;51.612;5.536;2023-05-07T11:17:29;8.55;;;7.80;;
59786;SDS011;45672;51.612;5.536;2023-05-07T11:19:56;10.40;;;9.30;;
59786;SDS011;45672;51.612;5.536;2023-05-07T11:24:57;9.75;;;8.70;;
59786;SDS011;45672;51.612;5.536;2023-05-07T11:27:24;10.13;;;8.70;;
59786;SDS011;45672;51.612;5.536;2023-05-07T11:29:51;10.88;;;8.82;;
59786;SDS011;45672;51.612;5.536;2023-05-07T11:32:22;11.77;;;8.25;;
59786;SDS011;45672;51.612;5.536;2023-05-07T11:34:53;8.80;;;7.88;;
59786;SDS011;45672;51.612;5.536;2023-05-07T11:37:20;11.35;;;8.07;;
59786;SDS011;45672;51.612;5.536;2023-05-07T11:39:46;11.23;;;8.85;;
59786;SDS011;45672;51.612;5.536;2023-05-07T11:42:30;10.02;;;8.43;;
59786;SDS011;45672;51.612;5.536;2023-05-07T11:45:00;10.73;;;8.10;;
59786;SDS011;45672;51.612;5.536;2023-05-07T11:47:26;10.95;;;7.40;;
59786;SDS011;45672;51.612;5.536;2023-05-07T11:49:55;9.13;;;8.07;;
59786;SDS011;45672;51.612;5.536;2023-05-07T11:52:22;10.35;;;8.48;;
59786;SDS011;45672;51.612;5.536;2023-05-07T11:54:49;9.15;;;7.85;;
59786;SDS011;45672;51.612;5.536;2023-05-07T11:57:15;10.02;;;6.75;;
59786;SDS011;45672;51.612;5.536;2023-05-07T11:59:40;8.77;;;7.50;;
59786;SDS011;45672;51.612;5.536;2023-05-07T12:02:06;9.85;;;7.45;;
59786;SDS011;45672;51.612;5.536;2023-05-07T12:04:32;8.30;;;7.40;;
59786;SDS011;45672;51.612;5.536;2023-05-07T12:06:57;9.13;;;6.55;;
59786;SDS011;45672;51.612;5.536;2023-05-07T12:09:23;7.28;;;5.80;;
59786;SDS011;45672;51.612;5.536;2023-05-07T12:11:48;8.70;;;6.03;;
59786;SDS011;45672;51.612;5.536;2023-05-07T12:14:13;9.40;;;7.07;;
59786;SDS011;45672;51.612;5.536;2023-05-07T12:16:40;10.70;;;6.15;;
59786;SDS011;45672;51.612;5.536;2023-05-07T12:19:06;6.18;;;5.57;;
59786;SDS011;45672;51.612;5.536;2023-05-07T12:21:33;10.20;;;6.65;;
59786;SDS011;45672;51.612;5.536;2023-05-07T12:24:00;7.38;;;6.63;;
59786;SDS011;45672;51.612;5.536;2023-05-07T12:26:26;9.35;;;6.93;;
59786;SDS011;45672;51.612;5.536;2023-05-07T12:28:51;12.07;;;6.05;;
59786;SDS011;45672;51.612;5.536;2023-05-07T12:31:16;9.00;;;6.00;;
59786;SDS011;45672;51.612;5.536;2023-05-07T12:33:42;8.50;;;5.80;;
59786;SDS011;45672;51.612;5.536;2023-05-07T12:36:08;8.52;;;5.88;;
59786;SDS011;45672;51.612;5.536;2023-05-07T12:38:39;10.30;;;5.93;;
59786;SDS011;45672;51.612;5.536;2023-05-07T12:41:08;8.75;;;5.50;;
59786;SDS011;45672;51.612;5.536;2023-05-07T12:43:35;6.50;;;5.68;;
59786;SDS011;45672;51.612;5.536;2023-05-07T12:46:02;6.50;;;5.85;;
59786;SDS011;45672;51.612;5.536;2023-05-07T12:48:29;8.10;;;6.20;;
59786;SDS011;45672;51.612;5.536;2023-05-07T12:50:56;7.90;;;6.00;;
59786;SDS011;45672;51.612;5.536;2023-05-07T12:53:23;9.20;;;6.63;;
59786;SDS011;45672;51.612;5.536;2023-05-07T12:55:51;7.60;;;6.75;;
59786;SDS011;45672;51.612;5.536;2023-05-07T12:58:18;8.63;;;7.72;;
59786;SDS011;45672;51.612;5.536;2023-05-07T13:00:54;10.65;;;7.03;;
59786;SDS011;45672;51.612;5.536;2023-05-07T13:05:50;13.63;;;8.05;;
59786;SDS011;45672;51.612;5.536;2023-05-07T13:08:32;10.43;;;7.60;;
59786;SDS011;45672;51.612;5.536;2023-05-07T13:11:02;11.98;;;8.15;;
59786;SDS011;45672;51.612;5.536;2023-05-07T13:13:32;9.98;;;8.40;;
59786;SDS011;45672;51.612;5.536;2023-05-07T13:16:01;5.15;;;3.90;;
59786;SDS011;45672;51.612;5.536;2023-05-07T13:18:29;3.17;;;1.77;;
59786;SDS011;45672;51.612;5.536;2023-05-07T13:20:55;2.28;;;1.67;;
59786;SDS011;45672;51.612;5.536;2023-05-07T13:23:20;4.05;;;1.40;;
59786;SDS011;45672;51.612;5.536;2023-05-07T13:25:46;1.48;;;1.27;;
59786;SDS011;45672;51.612;5.536;2023-05-07T13:28:12;2.95;;;1.35;;
59786;SDS011;45672;51.612;5.536;2023-05-07T13:30:37;3.42;;;1.30;;
59786;SDS011;45672;51.612;5.536;2023-05-07T13:33:03;2.47;;;1.38;;
59786;SDS011;45672;51.612;5.536;2023-05-07T13:35:28;3.78;;;1.55;;
59786;SDS011;45672;51.612;5.536;2023-05-07T13:37:54;7.63;;;1.77;;
59786;SDS011;45672;51.612;5.536;2023-05-07T13:40:20;4.03;;;1.30;;
59786;SDS011;45672;51.612;5.536;2023-05-07T13:42:46;3.83;;;1.45;;
59786;SDS011;45672;51.612;5.536;2023-05-07T13:45:11;3.90;;;1.52;;
59786;SDS011;45672;51.612;5.536;2023-05-07T13:47:39;3.45;;;1.90;;
59786;SDS011;45672;51.612;5.536;2023-05-07T13:50:05;23.30;;;2.85;;
59786;SDS011;45672;51.612;5.536;2023-05-07T13:52:31;15.95;;;3.10;;
59786;SDS011;45672;51.612;5.536;2023-05-07T13:54:56;16.10;;;2.92;;
59786;SDS011;45672;51.612;5.536;2023-05-07T13:57:23;6.57;;;2.95;;
59786;SDS011;45672;51.612;5.536;2023-05-07T13:59:48;7.38;;;3.10;;
59786;SDS011;45672;51.612;5.536;2023-05-07T14:02:14;6.18;;;2.88;;
59786;SDS011;45672;51.612;5.536;2023-05-07T14:04:40;7.25;;;3.10;;
59786;SDS011;45672;51.612;5.536;2023-05-07T14:07:05;3.90;;;2.95;;
59786;SDS011;45672;51.612;5.536;2023-05-07T14:09:30;8.05;;;3.00;;
59786;SDS011;45672;51.612;5.536;2023-05-07T14:11:55;7.93;;;3.38;;
59786;SDS011;45672;51.612;5.536;2023-05-07T14:14:21;12.57;;;3.22;;
59786;SDS011;45672;51.612;5.536;2023-05-07T14:16:46;5.53;;;2.67;;
59786;SDS011;45672;51.612;5.536;2023-05-07T14:19:12;8.40;;;2.80;;
59786;SDS011;45672;51.612;5.536;2023-05-07T14:21:38;8.85;;;2.55;;
59786;SDS011;45672;51.612;5.536;2023-05-07T14:24:05;10.90;;;2.72;;
59786;SDS011;45672;51.612;5.536;2023-05-07T14:26:31;26.70;;;3.45;;
59786;SDS011;45672;51.612;5.536;2023-05-07T14:28:57;5.38;;;2.83;;
59786;SDS011;45672;51.612;5.536;2023-05-07T14:31:23;7.53;;;3.42;;
59786;SDS011;45672;51.612;5.536;2023-05-07T14:33:49;7.88;;;3.35;;
59786;SDS011;45672;51.612;5.536;2023-05-07T14:36:15;3.50;;;3.20;;
59786;SDS011;45672;51.612;5.536;2023-05-07T14:38:41;6.63;;;3.47;;
59786;SDS011;45672;51.612;5.536;2023-05-07T14:41:07;4.30;;;3.70;;
59786;SDS011;45672;51.612;5.536;2023-05-07T14:43:32;6.45;;;3.42;;